createdAt,value
2022-08-26T00:02:01.406Z,22.60
2022-08-26T00:04:29.849Z,22.50
2022-08-26T00:06:58.632Z,22.40
2022-08-26T00:09:29.329Z,22.10
2022-08-26T00:11:57.906Z,22.20
2022-08-26T00:14:30.979Z,22.00
2022-08-26T00:17:01.085Z,21.90
2022-08-26T00:19:29.809Z,21.90
2022-08-26T00:21:58.245Z,21.90
2022-08-26T00:26:55.371Z,21.80
2022-08-26T00:29:23.747Z,21.70
2022-08-26T00:31:52.379Z,21.60
2022-08-26T00:34:22.037Z,21.60
2022-08-26T00:36:52.015Z,21.70
2022-08-26T00:39:21.355Z,22.00
2022-08-26T00:41:50.583Z,22.30
2022-08-26T00:44:19.658Z,22.40
2022-08-26T00:46:56.137Z,22.30
2022-08-26T00:49:30.898Z,22.10
2022-08-26T00:52:01.708Z,22.00
2022-08-26T00:54:40.229Z,22.00
2022-08-26T00:57:16.716Z,21.90
2022-08-26T00:59:48.053Z,22.00
2022-08-26T01:02:20.735Z,22.00
2022-08-26T01:04:55.956Z,21.90
2022-08-26T01:07:27.395Z,21.90
2022-08-26T01:09:56.429Z,21.90
2022-08-26T01:12:25.998Z,22.00
2022-08-26T01:14:54.795Z,22.00
2022-08-26T01:17:23.247Z,22.10
2022-08-26T01:19:57.596Z,22.10
2022-08-26T01:22:31.065Z,22.10
2022-08-26T01:25:03.687Z,22.10
2022-08-26T01:27:33.602Z,22.20
2022-08-26T01:30:03.562Z,22.30
2022-08-26T01:32:34.329Z,22.30
2022-08-26T01:35:03.283Z,22.40
2022-08-26T01:37:36.830Z,22.40
2022-08-26T01:40:17.670Z,22.50
2022-08-26T01:42:47.211Z,22.60
2022-08-26T01:45:19.918Z,22.70
2022-08-26T01:47:50.045Z,22.70
2022-08-26T01:50:30.314Z,22.70
2022-08-26T01:53:05.079Z,22.60
2022-08-26T01:55:36.358Z,22.60
2022-08-26T01:58:09.149Z,22.60
2022-08-26T02:00:39.929Z,22.60
2022-08-26T02:03:18.107Z,22.60
2022-08-26T02:05:48.884Z,22.60
2022-08-26T02:08:24.604Z,22.60
2022-08-26T02:10:58.466Z,22.50
2022-08-26T02:13:31.448Z,22.50
2022-08-26T02:16:00.905Z,22.30
2022-08-26T02:18:31.462Z,22.30
2022-08-26T02:21:00.483Z,22.40
2022-08-26T02:23:31.328Z,22.60
2022-08-26T02:26:07.219Z,22.70
2022-08-26T02:28:40.043Z,22.70
2022-08-26T02:31:08.955Z,22.80
2022-08-26T02:33:38.307Z,22.90
2022-08-26T02:36:13.842Z,22.90
2022-08-26T02:38:43.995Z,22.90
2022-08-26T02:41:16.273Z,22.80
2022-08-26T02:43:49.174Z,22.70
2022-08-26T02:46:21.478Z,22.60
2022-08-26T02:48:56.304Z,22.70
2022-08-26T02:51:24.723Z,22.80
2022-08-26T02:53:55.816Z,22.90
2022-08-26T02:56:25.736Z,22.80
2022-08-26T02:58:56.445Z,22.90
2022-08-26T03:01:30.109Z,22.90
2022-08-26T03:03:59.121Z,22.90
2022-08-26T03:06:27.413Z,22.90
2022-08-26T03:08:55.849Z,22.70
2022-08-26T03:11:29.650Z,22.40
2022-08-26T03:14:03.532Z,22.00
2022-08-26T03:16:33.803Z,21.70
2022-08-26T03:19:03.666Z,21.70
2022-08-26T03:21:32.438Z,21.60
2022-08-26T03:24:03.435Z,21.60
2022-08-26T03:26:33.574Z,21.70
2022-08-26T03:29:19.620Z,21.70
2022-08-26T03:31:50.400Z,21.70
2022-08-26T03:34:21.531Z,21.70
2022-08-26T03:36:51.265Z,21.80
2022-08-26T03:39:19.803Z,21.80
2022-08-26T03:41:49.547Z,21.70
2022-08-26T03:44:19.729Z,21.70
2022-08-26T03:46:50.311Z,21.70
2022-08-26T03:49:18.581Z,21.80
2022-08-26T03:51:47.306Z,21.80
2022-08-26T03:54:15.776Z,21.70
2022-08-26T03:56:44.007Z,21.70
2022-08-26T03:59:16.388Z,21.70
2022-08-26T04:01:44.877Z,21.70
2022-08-26T04:04:15.660Z,21.70
2022-08-26T04:06:44.908Z,21.90
2022-08-26T04:09:21.184Z,22.20
2022-08-26T04:11:50.898Z,22.30
2022-08-26T04:14:23.794Z,22.30
2022-08-26T04:16:56.229Z,22.30
2022-08-26T04:19:25.928Z,22.10
2022-08-26T04:21:58.059Z,22.10
2022-08-26T04:24:28.499Z,22.10
2022-08-26T04:26:57.507Z,22.10
2022-08-26T04:29:28.280Z,22.20
2022-08-26T04:31:59.432Z,22.20
2022-08-26T04:34:29.492Z,22.20
2022-08-26T04:36:59.112Z,22.30
2022-08-26T04:39:30.347Z,22.40
2022-08-26T04:44:31.985Z,22.30
2022-08-26T04:47:01.028Z,22.30
2022-08-26T04:52:05.901Z,22.20
2022-08-26T04:54:36.527Z,22.20
2022-08-26T04:57:07.467Z,22.20
2022-08-26T04:59:42.124Z,22.10
2022-08-26T05:07:09.763Z,22.10
2022-08-26T05:09:38.544Z,22.00
2022-08-26T05:12:10.739Z,22.00
2022-08-26T05:14:46.549Z,22.00
2022-08-26T05:17:15.316Z,22.20
2022-08-26T05:19:44.169Z,22.30
2022-08-26T05:22:15.069Z,22.40
2022-08-26T05:27:16.413Z,21.90
2022-08-26T05:35:03.415Z,21.70
2022-08-26T05:37:39.451Z,21.70
2022-08-26T05:40:09.205Z,21.60
2022-08-26T05:42:48.613Z,21.70
2022-08-26T05:45:18.739Z,21.70
2022-08-26T05:53:18.214Z,21.80
2022-08-26T06:01:02.429Z,21.60
2022-08-26T06:03:32.360Z,22.00
2022-08-26T06:06:28.108Z,22.00
2022-08-26T06:09:04.110Z,22.00
2022-08-26T06:11:36.092Z,22.00
2022-08-26T06:14:09.571Z,21.90
2022-08-26T06:16:44.008Z,22.20
2022-08-26T06:19:15.504Z,22.20
2022-08-26T06:21:54.153Z,22.20
2022-08-26T06:24:58.399Z,22.30
2022-08-26T06:27:36.796Z,22.30
2022-08-26T06:32:40.118Z,22.40
2022-08-26T06:35:12.205Z,22.30
2022-08-26T06:40:12.322Z,22.40
2022-08-26T06:42:43.235Z,22.50
2022-08-26T06:45:13.996Z,22.60
2022-08-26T06:52:49.186Z,22.50
2022-08-26T06:55:17.785Z,22.30
2022-08-26T06:57:46.970Z,22.30
2022-08-26T07:00:16.736Z,22.30
2022-08-26T07:05:45.230Z,22.40
2022-08-26T07:10:46.349Z,22.40
2022-08-26T07:13:15.288Z,22.60
2022-08-26T07:18:14.657Z,22.80
2022-08-26T07:20:43.464Z,22.80
2022-08-26T07:23:15.157Z,23.00
2022-08-26T07:25:45.857Z,22.90
2022-08-26T07:33:15.121Z,23.20
2022-08-26T07:35:44.692Z,23.20
2022-08-26T07:38:13.709Z,23.40
2022-08-26T07:40:42.610Z,23.40
2022-08-26T07:43:11.221Z,23.40
2022-08-26T07:45:43.958Z,23.10
2022-08-26T07:48:18.151Z,23.30
2022-08-26T07:50:50.589Z,23.30
2022-08-26T07:53:20.135Z,23.40
2022-08-26T07:56:05.620Z,23.50
2022-08-26T07:58:34.666Z,23.60
2022-08-26T08:01:03.033Z,23.60
2022-08-26T08:03:38.275Z,23.70
2022-08-26T08:06:07.334Z,23.70
2022-08-26T08:08:45.160Z,23.60
2022-08-26T08:11:22.856Z,23.70
2022-08-26T08:13:56.485Z,23.80
2022-08-26T08:16:26.778Z,23.80
2022-08-26T08:19:04.247Z,23.90
2022-08-26T08:21:33.467Z,24.00
2022-08-26T08:24:01.663Z,24.00
2022-08-26T08:26:30.711Z,24.10
2022-08-26T08:29:00.032Z,24.40
2022-08-26T08:34:21.434Z,24.40
2022-08-26T08:36:50.495Z,24.50
2022-08-26T08:39:22.406Z,24.20
2022-08-26T08:42:06.527Z,24.30
2022-08-26T08:44:38.230Z,24.30
2022-08-26T08:47:20.737Z,24.60
2022-08-26T08:49:51.430Z,24.70
2022-08-26T08:52:38.125Z,24.90
2022-08-26T08:55:11.072Z,25.10
2022-08-26T08:58:02.243Z,25.10
2022-08-26T09:00:39.942Z,25.20
2022-08-26T09:03:20.070Z,25.60
2022-08-26T09:05:52.565Z,25.30
2022-08-26T09:08:35.857Z,25.30
2022-08-26T09:11:13.782Z,25.10
2022-08-26T09:13:48.406Z,25.00
2022-08-26T09:16:21.760Z,25.10
2022-08-26T09:19:07.472Z,25.00
2022-08-26T09:21:39.396Z,25.40
2022-08-26T09:24:11.146Z,25.60
2022-08-26T09:26:45.903Z,25.50
2022-08-26T09:29:23.383Z,25.70
2022-08-26T09:32:16.125Z,25.70
2022-08-26T09:34:57.419Z,25.70
2022-08-26T09:37:43.953Z,25.70
2022-08-26T09:40:20.936Z,26.20
2022-08-26T09:43:11.302Z,26.70
2022-08-26T09:45:50.076Z,26.90
2022-08-26T09:48:31.089Z,26.70
2022-08-26T09:51:05.619Z,26.40
2022-08-26T09:53:51.065Z,26.40
2022-08-26T09:56:27.860Z,26.40
2022-08-26T09:58:57.761Z,26.70
2022-08-26T10:01:33.088Z,26.60
2022-08-26T10:04:08.290Z,26.80
2022-08-26T10:06:40.383Z,27.30
2022-08-26T10:09:15.266Z,27.50
2022-08-26T10:11:47.931Z,27.80
2022-08-26T10:14:22.171Z,27.90
2022-08-26T10:16:55.257Z,27.90
2022-08-26T10:19:37.922Z,28.20
2022-08-26T10:22:20.248Z,28.50
2022-08-26T10:24:55.250Z,28.90
2022-08-26T10:27:28.676Z,28.90
2022-08-26T10:30:03.410Z,29.00
2022-08-26T10:32:37.385Z,28.80
2022-08-26T10:35:13.366Z,28.70
2022-08-26T10:37:46.562Z,28.90
2022-08-26T10:40:21.339Z,29.30
2022-08-26T10:42:56.774Z,29.60
2022-08-26T10:45:28.495Z,29.60
2022-08-26T10:48:02.220Z,29.60
2022-08-26T10:50:35.476Z,29.50
2022-08-26T10:53:12.776Z,30.00
2022-08-26T10:55:47.736Z,29.80
2022-08-26T10:58:32.057Z,29.60
2022-08-26T11:01:27.782Z,29.80
2022-08-26T11:04:04.205Z,29.20
2022-08-26T11:06:33.095Z,29.10
2022-08-26T11:09:11.919Z,29.20
2022-08-26T11:11:48.455Z,28.50
2022-08-26T11:14:46.168Z,28.40
2022-08-26T11:18:00.117Z,28.90
2022-08-26T11:20:42.066Z,28.90
2022-08-26T11:23:50.471Z,28.90
2022-08-26T11:26:35.759Z,28.50
2022-08-26T11:29:13.130Z,28.40
2022-08-26T11:32:02.917Z,28.50
2022-08-26T11:34:54.034Z,28.50
2022-08-26T11:37:34.437Z,28.60
2022-08-26T11:40:11.296Z,28.70
2022-08-26T11:42:43.295Z,28.70
2022-08-26T11:45:23.968Z,28.90
2022-08-26T11:47:52.361Z,29.20
2022-08-26T11:50:26.337Z,29.70
2022-08-26T11:53:01.724Z,29.60
2022-08-26T11:55:34.823Z,30.10
2022-08-26T11:58:05.844Z,30.30
2022-08-26T12:00:51.233Z,30.00
2022-08-26T12:03:23.016Z,30.30
2022-08-26T12:06:10.123Z,30.00
2022-08-26T12:08:45.503Z,29.80
2022-08-26T12:11:23.105Z,29.60
2022-08-26T12:13:59.618Z,29.20
2022-08-26T12:16:31.261Z,28.50
2022-08-26T12:18:59.718Z,28.50
2022-08-26T12:21:41.930Z,28.60
2022-08-26T12:24:10.511Z,28.60
2022-08-26T12:26:39.632Z,28.50
2022-08-26T12:29:20.228Z,28.40
2022-08-26T12:32:09.681Z,28.30
2022-08-26T12:34:41.640Z,28.30
2022-08-26T12:37:15.296Z,28.30
2022-08-26T12:39:45.721Z,28.30
2022-08-26T12:42:40.226Z,28.20
2022-08-26T12:45:09.629Z,28.20
2022-08-26T12:47:43.972Z,28.10
2022-08-26T12:50:19.149Z,28.20
2022-08-26T12:52:58.117Z,28.30
2022-08-26T12:55:36.184Z,28.20
2022-08-26T12:58:28.118Z,28.30
2022-08-26T13:00:57.897Z,28.20
2022-08-26T13:03:43.748Z,28.00
2022-08-26T13:06:16.124Z,27.80
2022-08-26T13:08:46.463Z,27.70
2022-08-26T13:11:20.515Z,27.50
2022-08-26T13:13:50.613Z,27.40
2022-08-26T13:16:20.226Z,27.40
2022-08-26T13:18:52.633Z,27.10
2022-08-26T13:21:24.427Z,27.10
2022-08-26T13:23:57.586Z,27.10
2022-08-26T13:26:26.069Z,27.20
2022-08-26T13:29:01.882Z,27.10
2022-08-26T13:31:32.373Z,27.10
2022-08-26T13:34:03.945Z,27.10
2022-08-26T13:36:32.677Z,27.10
2022-08-26T13:41:29.925Z,27.20
2022-08-26T13:43:59.585Z,27.00
2022-08-26T13:46:28.953Z,27.00
2022-08-26T13:48:57.879Z,26.90
2022-08-26T13:51:29.148Z,26.90
2022-08-26T13:53:58.516Z,26.90
2022-08-26T13:56:29.419Z,26.90
2022-08-26T13:58:58.187Z,26.90
2022-08-26T14:01:27.731Z,26.90
2022-08-26T14:03:57.124Z,26.90
2022-08-26T14:06:27.157Z,26.90
2022-08-26T14:08:55.661Z,26.90
2022-08-26T14:11:25.017Z,27.00
2022-08-26T14:13:55.480Z,27.10
2022-08-26T14:16:28.013Z,27.20
2022-08-26T14:18:56.936Z,27.10
2022-08-26T14:21:27.492Z,27.10
2022-08-26T14:24:00.732Z,27.00
2022-08-26T14:26:30.082Z,26.90
2022-08-26T14:28:59.566Z,26.90
2022-08-26T14:31:29.469Z,26.80
2022-08-26T14:33:59.435Z,26.80
2022-08-26T14:36:32.521Z,26.70
2022-08-26T14:39:05.348Z,26.80
2022-08-26T14:44:07.607Z,26.70
2022-08-26T14:46:42.043Z,26.70
2022-08-26T14:49:10.968Z,26.70
2022-08-26T14:51:49.854Z,26.70
2022-08-26T14:54:22.673Z,26.60
2022-08-26T14:57:03.714Z,26.60
2022-08-26T14:59:34.567Z,26.50
2022-08-26T15:02:04.060Z,26.50
2022-08-26T15:07:05.144Z,26.60
2022-08-26T15:09:35.427Z,26.40
2022-08-26T15:12:04.225Z,26.40
2022-08-26T15:14:33.162Z,26.20
2022-08-26T15:17:02.128Z,26.10
2022-08-26T15:21:59.843Z,26.20
2022-08-26T15:24:29.967Z,26.30
2022-08-26T15:26:58.665Z,26.10
2022-08-26T15:29:27.087Z,26.20
2022-08-26T15:31:57.469Z,26.00
2022-08-26T15:34:26.906Z,26.20
2022-08-26T15:36:55.722Z,26.30
2022-08-26T15:39:24.265Z,26.20
2022-08-26T15:41:56.106Z,26.10
2022-08-26T15:44:24.724Z,25.90
2022-08-26T15:46:58.281Z,26.00
2022-08-26T15:49:27.389Z,26.00
2022-08-26T15:51:55.730Z,26.00
2022-08-26T15:54:24.862Z,25.80
2022-08-26T15:56:54.824Z,25.60
2022-08-26T15:59:23.745Z,25.60
2022-08-26T16:01:52.498Z,25.40
2022-08-26T16:04:21.255Z,25.50
2022-08-26T16:06:52.041Z,25.40
2022-08-26T16:09:23.533Z,25.20
2022-08-26T16:11:52.603Z,25.20
2022-08-26T16:14:22.329Z,25.20
2022-08-26T16:16:51.166Z,25.20
2022-08-26T16:19:19.579Z,25.10
2022-08-26T16:21:51.504Z,25.00
2022-08-26T16:24:24.869Z,25.00
2022-08-26T16:26:54.602Z,25.00
2022-08-26T16:29:24.717Z,24.90
2022-08-26T16:31:53.857Z,24.90
2022-08-26T16:34:22.837Z,24.90
2022-08-26T16:36:51.222Z,25.10
2022-08-26T16:39:19.506Z,24.90
2022-08-26T16:41:47.785Z,24.90
2022-08-26T16:44:16.118Z,24.80
2022-08-26T16:46:45.815Z,24.60
2022-08-26T16:49:14.266Z,24.60
2022-08-26T16:51:42.435Z,24.60
2022-08-26T16:54:10.694Z,24.60
2022-08-26T16:56:39.343Z,24.40
2022-08-26T16:59:11.484Z,24.50
2022-08-26T17:01:39.857Z,24.40
2022-08-26T17:04:09.608Z,24.30
2022-08-26T17:06:38.316Z,24.30
2022-08-26T17:09:09.163Z,24.20
2022-08-26T17:11:37.512Z,24.20
2022-08-26T17:14:06.464Z,24.20
2022-08-26T17:16:35.166Z,24.10
2022-08-26T17:19:04.552Z,24.10
2022-08-26T17:21:35.696Z,24.20
2022-08-26T17:24:04.882Z,24.10
2022-08-26T17:26:33.321Z,23.90
2022-08-26T17:29:04.177Z,23.90
2022-08-26T17:31:32.650Z,23.80
2022-08-26T17:34:01.096Z,23.80
2022-08-26T17:36:29.471Z,23.80
2022-08-26T17:39:00.555Z,23.60
2022-08-26T17:41:28.943Z,23.60
2022-08-26T17:43:57.436Z,23.60
2022-08-26T17:46:26.160Z,23.60
2022-08-26T17:51:23.558Z,23.60
2022-08-26T17:53:53.310Z,23.60
2022-08-26T17:56:25.496Z,23.50
2022-08-26T17:58:54.975Z,23.50
2022-08-26T18:01:27.235Z,23.50
2022-08-26T18:04:00.329Z,23.50
2022-08-26T18:06:31.180Z,23.40
2022-08-26T18:09:00.508Z,23.40
2022-08-26T18:11:31.153Z,23.40
2022-08-26T18:14:00.342Z,23.40
2022-08-26T18:16:29.874Z,23.30
2022-08-26T18:18:59.243Z,23.40
2022-08-26T18:21:28.609Z,23.40
2022-08-26T18:23:56.967Z,23.30
2022-08-26T18:26:27.380Z,23.20
2022-08-26T18:28:57.261Z,23.20
2022-08-26T18:31:26.108Z,23.20
2022-08-26T18:33:55.217Z,23.10
2022-08-26T18:36:25.912Z,23.10
2022-08-26T18:38:55.134Z,23.10
2022-08-26T18:41:25.531Z,23.00
2022-08-26T18:43:54.591Z,23.10
2022-08-26T18:46:26.441Z,23.00
2022-08-26T18:48:56.232Z,23.00
2022-08-26T18:51:26.433Z,23.00
2022-08-26T18:53:54.860Z,22.90
2022-08-26T18:56:23.234Z,22.90
2022-08-26T18:58:51.811Z,22.80
2022-08-26T19:01:25.476Z,22.80
2022-08-26T19:03:58.285Z,22.90
2022-08-26T19:06:28.212Z,22.80
2022-08-26T19:08:57.873Z,22.70
2022-08-26T19:11:31.678Z,22.70
2022-08-26T19:14:07.653Z,22.70
2022-08-26T19:16:36.712Z,22.70
2022-08-26T19:19:06.911Z,22.80
2022-08-26T19:21:37.325Z,22.80
2022-08-26T19:24:09.372Z,22.90
2022-08-26T19:26:38.973Z,23.00
2022-08-26T19:29:07.291Z,23.00
2022-08-26T19:31:35.706Z,22.90
2022-08-26T19:34:07.058Z,22.80
2022-08-26T19:36:37.833Z,22.90
2022-08-26T19:39:07.704Z,22.90
2022-08-26T19:41:38.115Z,22.90
2022-08-26T19:44:10.602Z,22.90
2022-08-26T19:49:13.871Z,23.00
2022-08-26T19:51:41.921Z,23.00
2022-08-26T19:54:11.212Z,23.10
2022-08-26T19:56:39.744Z,23.10
2022-08-26T19:59:10.315Z,23.00
2022-08-26T20:01:38.575Z,22.80
2022-08-26T20:04:06.761Z,22.70
2022-08-26T20:06:36.898Z,22.80
2022-08-26T20:11:35.342Z,22.50
2022-08-26T20:16:35.273Z,22.70
2022-08-26T20:19:21.367Z,22.70
2022-08-26T20:21:51.150Z,22.60
2022-08-26T20:24:21.233Z,22.50
2022-08-26T20:26:50.106Z,22.30
2022-08-26T20:29:21.576Z,22.20
2022-08-26T20:31:52.421Z,22.30
2022-08-26T20:34:23.320Z,22.30
2022-08-26T20:36:53.643Z,22.40
2022-08-26T20:39:22.708Z,22.50
2022-08-26T20:41:51.256Z,22.40
2022-08-26T20:44:19.986Z,22.50
2022-08-26T20:46:48.167Z,22.50
2022-08-26T20:49:18.062Z,22.60
2022-08-26T20:51:46.958Z,22.50
2022-08-26T20:54:17.035Z,22.40
2022-08-26T20:56:45.363Z,22.40
2022-08-26T20:59:14.932Z,22.50
2022-08-26T21:01:43.876Z,22.40
2022-08-26T21:04:14.623Z,22.40
2022-08-26T21:06:47.279Z,22.40
2022-08-26T21:09:23.734Z,22.40
2022-08-26T21:11:52.888Z,22.40
2022-08-26T21:14:23.152Z,22.20
2022-08-26T21:16:54.124Z,22.20
2022-08-26T21:19:22.514Z,22.10
2022-08-26T21:21:51.087Z,22.00
2022-08-26T21:24:19.379Z,22.10
2022-08-26T21:26:49.272Z,22.20
2022-08-26T21:29:21.981Z,22.20
2022-08-26T21:31:50.451Z,22.10
2022-08-26T21:34:19.598Z,22.10
2022-08-26T21:36:48.497Z,22.00
2022-08-26T21:39:17.597Z,22.00
2022-08-26T21:41:47.230Z,22.00
2022-08-26T21:44:18.527Z,22.00
2022-08-26T21:46:47.835Z,22.00
2022-08-26T21:49:16.856Z,22.00
2022-08-26T21:51:46.930Z,22.00
2022-08-26T21:54:16.443Z,21.90
2022-08-26T21:56:47.317Z,22.10
2022-08-26T21:59:20.395Z,21.70
2022-08-26T22:01:49.276Z,21.70
2022-08-26T22:04:18.363Z,21.70
2022-08-26T22:06:51.632Z,21.70
2022-08-26T22:09:24.446Z,21.70
2022-08-26T22:11:53.841Z,21.40
2022-08-26T22:14:30.641Z,21.40
2022-08-26T22:17:00.572Z,21.40
2022-08-26T22:19:31.820Z,21.40
2022-08-26T22:22:03.659Z,21.30
2022-08-26T22:24:31.861Z,21.40
2022-08-26T22:26:59.984Z,21.40
2022-08-26T22:29:33.305Z,21.40
2022-08-26T22:32:04.777Z,21.40
2022-08-26T22:34:33.051Z,21.40
2022-08-26T22:37:03.113Z,21.30
2022-08-26T22:39:31.647Z,21.40
2022-08-26T22:41:59.757Z,21.40
2022-08-26T22:44:28.726Z,21.20
2022-08-26T22:46:58.260Z,21.30
2022-08-26T22:49:26.467Z,21.40
2022-08-26T22:51:54.709Z,21.30
2022-08-26T22:54:22.839Z,21.30
2022-08-26T22:56:50.982Z,21.30
2022-08-26T22:59:19.414Z,21.30
2022-08-26T23:01:47.837Z,21.30
2022-08-26T23:04:17.508Z,21.30
2022-08-26T23:06:47.710Z,21.30
2022-08-26T23:09:18.124Z,21.30
2022-08-26T23:11:48.720Z,21.20
2022-08-26T23:14:18.135Z,21.20
2022-08-26T23:16:48.989Z,21.30
2022-08-26T23:19:20.761Z,21.40
2022-08-26T23:21:52.106Z,21.50
2022-08-26T23:24:20.346Z,21.50
2022-08-26T23:26:48.650Z,21.40
2022-08-26T23:29:16.907Z,21.30
2022-08-26T23:31:45.470Z,21.40
2022-08-26T23:34:31.406Z,21.40
2022-08-26T23:37:01.654Z,21.40
2022-08-26T23:39:29.902Z,21.40
2022-08-26T23:41:58.463Z,21.50
2022-08-26T23:44:26.933Z,21.50
2022-08-26T23:46:55.289Z,21.50
2022-08-26T23:49:24.000Z,21.40
2022-08-26T23:52:10.077Z,21.50
2022-08-26T23:54:40.558Z,21.40
2022-08-26T23:57:10.183Z,21.40
2022-08-26T23:59:39.151Z,21.40
